sensor_id;sensor_type;location;lat;lon;timestamp;pressure;altitude;pressure_sealevel;temperature;humidity
2785;BME280;57944;48.722;9.316;2023-01-29T00:00:39;99142.28;;;-0.83;100.00
2785;BME280;57944;48.722;9.316;2023-01-29T00:03:14;99139.66;;;-0.81;100.00
2785;BME280;57944;48.722;9.316;2023-01-29T00:05:44;99139.06;;;-0.85;100.00
2785;BME280;57944;48.722;9.316;2023-01-29T00:08:15;99137.34;;;-0.84;100.00
2785;BME280;57944;48.722;9.316;2023-01-29T00:10:45;99142.50;;;-0.73;100.00
2785;BME280;57944;48.722;9.316;2023-01-29T00:13:16;99132.06;;;-0.80;100.00
2785;BME280;57944;48.722;9.316;2023-01-29T00:15:53;99130.28;;;-0.78;100.00
2785;BME280;57944;48.722;9.316;2023-01-29T00:18:27;99128.31;;;-0.87;100.00
2785;BME280;57944;48.722;9.316;2023-01-29T00:20:57;99135.31;;;-0.78;100.00
2785;BME280;57944;48.722;9.316;2023-01-29T00:23:27;99146.47;;;-0.83;100.00
2785;BME280;57944;48.722;9.316;2023-01-29T00:25:59;99145.84;;;-0.87;100.00
2785;BME280;57944;48.722;9.316;2023-01-29T00:28:29;99142.47;;;-0.86;100.00
2785;BME280;57944;48.722;9.316;2023-01-29T00:31:07;99145.16;;;-0.89;100.00
2785;BME280;57944;48.722;9.316;2023-01-29T00:33:40;99145.13;;;-0.75;100.00
2785;BME280;57944;48.722;9.316;2023-01-29T00:36:13;99136.09;;;-0.77;100.00
2785;BME280;57944;48.722;9.316;2023-01-29T00:38:44;99127.25;;;-0.83;100.00
2785;BME280;57944;48.722;9.316;2023-01-29T00:41:22;99131.53;;;-0.71;100.00
2785;BME280;57944;48.722;9.316;2023-01-29T00:44:06;99135.72;;;-0.71;100.00
2785;BME280;57944;48.722;9.316;2023-01-29T00:46:49;99138.06;;;-0.82;100.00
2785;BME280;57944;48.722;9.316;2023-01-29T00:49:22;99139.59;;;-0.80;100.00
2785;BME280;57944;48.722;9.316;2023-01-29T00:51:53;99131.47;;;-0.83;100.00
2785;BME280;57944;48.722;9.316;2023-01-29T00:54:36;99133.50;;;-0.90;100.00
2785;BME280;57944;48.722;9.316;2023-01-29T00:57:06;99131.81;;;-0.90;100.00
2785;BME280;57944;48.722;9.316;2023-01-29T00:59:36;99136.47;;;-0.83;100.00
2785;BME280;57944;48.722;9.316;2023-01-29T01:02:07;99133.50;;;-0.90;100.00
2785;BME280;57944;48.722;9.316;2023-01-29T01:04:53;99130.28;;;-0.78;100.00
2785;BME280;57944;48.722;9.316;2023-01-29T01:07:23;99132.06;;;-0.80;100.00
2785;BME280;57944;48.722;9.316;2023-01-29T01:09:54;99125.44;;;-0.81;100.00
2785;BME280;57944;48.722;9.316;2023-01-29T01:12:38;99129.47;;;-0.78;100.00
2785;BME280;57944;48.722;9.316;2023-01-29T01:15:10;99130.28;;;-0.78;100.00
2785;BME280;57944;48.722;9.316;2023-01-29T01:17:41;99129.13;;;-0.86;100.00
2785;BME280;57944;48.722;9.316;2023-01-29T01:20:14;99136.97;;;-0.78;100.00
2785;BME280;57944;48.722;9.316;2023-01-29T01:22:45;99134.75;;;-0.83;100.00
2785;BME280;57944;48.722;9.316;2023-01-29T01:25:15;99125.38;;;-0.79;100.00
2785;BME280;57944;48.722;9.316;2023-01-29T01:27:46;99126.53;;;-0.85;100.00
2785;BME280;57944;48.722;9.316;2023-01-29T01:30:17;99123.28;;;-0.73;100.00
2785;BME280;57944;48.722;9.316;2023-01-29T01:32:47;99118.28;;;-0.73;100.00
2785;BME280;57944;48.722;9.316;2023-01-29T01:35:20;99123.94;;;-0.69;100.00
2785;BME280;57944;48.722;9.316;2023-01-29T01:37:51;99124.47;;;-0.78;100.00
2785;BME280;57944;48.722;9.316;2023-01-29T01:40:23;99123.28;;;-0.73;100.00
2785;BME280;57944;48.722;9.316;2023-01-29T01:42:56;99127.56;;;-0.60;100.00
2785;BME280;57944;48.722;9.316;2023-01-29T01:45:31;99122.88;;;-0.79;100.00
2785;BME280;57944;48.722;9.316;2023-01-29T01:48:07;99125.81;;;-0.87;100.00
2785;BME280;57944;48.722;9.316;2023-01-29T01:50:48;99126.72;;;-0.88;100.00
2785;BME280;57944;48.722;9.316;2023-01-29T01:53:23;99108.94;;;-0.98;100.00
2785;BME280;57944;48.722;9.316;2023-01-29T01:56:02;99110.56;;;-0.97;100.00
2785;BME280;57944;48.722;9.316;2023-01-29T01:58:38;99112.16;;;-0.96;100.00
2785;BME280;57944;48.722;9.316;2023-01-29T02:01:10;99115.81;;;-1.01;100.00
2785;BME280;57944;48.722;9.316;2023-01-29T02:03:46;99117.63;;;-0.89;100.00
2785;BME280;57944;48.722;9.316;2023-01-29T02:06:35;99115.28;;;-0.92;100.00
2785;BME280;57944;48.722;9.316;2023-01-29T02:09:26;99115.81;;;-0.87;100.00
2785;BME280;57944;48.722;9.316;2023-01-29T02:12:09;99119.03;;;-0.85;100.00
2785;BME280;57944;48.722;9.316;2023-01-29T02:14:41;99112.59;;;-0.75;100.00
2785;BME280;57944;48.722;9.316;2023-01-29T02:17:16;99122.13;;;-0.67;100.00
2785;BME280;57944;48.722;9.316;2023-01-29T02:20:02;99138.88;;;-0.82;100.00
2785;BME280;57944;48.722;9.316;2023-01-29T02:23:13;99134.03;;;-0.85;100.00
2785;BME280;57944;48.722;9.316;2023-01-29T02:26:15;99138.50;;;-0.76;100.00
2785;BME280;57944;48.722;9.316;2023-01-29T02:28:57;99136.47;;;-0.83;100.00
2785;BME280;57944;48.722;9.316;2023-01-29T02:32:07;99135.38;;;-0.79;100.00
2785;BME280;57944;48.722;9.316;2023-01-29T02:34:51;99134.22;;;-0.88;100.00
2785;BME280;57944;48.722;9.316;2023-01-29T02:37:49;99142.09;;;-0.94;100.00
2785;BME280;57944;48.722;9.316;2023-01-29T02:40:30;99136.47;;;-0.83;100.00
2785;BME280;57944;48.722;9.316;2023-01-29T02:43:10;99145.66;;;-0.84;100.00
2785;BME280;57944;48.722;9.316;2023-01-29T02:45:53;99136.28;;;-0.80;100.00
2785;BME280;57944;48.722;9.316;2023-01-29T02:48:39;99133.06;;;-0.97;100.00
2785;BME280;57944;48.722;9.316;2023-01-29T02:51:57;99134.84;;;-0.99;100.00
2785;BME280;57944;48.722;9.316;2023-01-29T02:54:36;99135.84;;;-1.01;100.00
2785;BME280;57944;48.722;9.316;2023-01-29T02:57:18;99137.63;;;-1.03;100.00
2785;BME280;57944;48.722;9.316;2023-01-29T02:59:56;99140.41;;;-1.08;100.00
2785;BME280;57944;48.722;9.316;2023-01-29T03:02:37;99135.28;;;-1.06;100.00
2785;BME280;57944;48.722;9.316;2023-01-29T03:05:14;99139.06;;;-1.14;100.00
2785;BME280;57944;48.722;9.316;2023-01-29T03:07:52;99129.41;;;-1.05;100.00
2785;BME280;57944;48.722;9.316;2023-01-29T03:10:37;99133.53;;;-1.04;100.00
2785;BME280;57944;48.722;9.316;2023-01-29T03:13:28;99126.44;;;-0.98;100.00
2785;BME280;57944;48.722;9.316;2023-01-29T03:16:06;99121.44;;;-0.83;100.00
2785;BME280;57944;48.722;9.316;2023-01-29T03:18:53;99123.97;;;-0.83;100.00
2785;BME280;57944;48.722;9.316;2023-01-29T03:21:35;99121.19;;;-0.93;100.00
2785;BME280;57944;48.722;9.316;2023-01-29T03:24:36;99122.09;;;-1.08;100.00
2785;BME280;57944;48.722;9.316;2023-01-29T03:27:28;99125.28;;;-1.06;100.00
2785;BME280;57944;48.722;9.316;2023-01-29T03:30:15;99127.53;;;-1.02;100.00
2785;BME280;57944;48.722;9.316;2023-01-29T03:33:13;99124.06;;;-1.14;100.00
2785;BME280;57944;48.722;9.316;2023-01-29T03:35:52;99125.03;;;-1.16;100.00
2785;BME280;57944;48.722;9.316;2023-01-29T03:38:28;99118.50;;;-1.19;100.00
2785;BME280;57944;48.722;9.316;2023-01-29T03:41:07;99123.06;;;-1.11;100.00
2785;BME280;57944;48.722;9.316;2023-01-29T03:43:49;99129.25;;;-1.17;100.00
2785;BME280;57944;48.722;9.316;2023-01-29T03:46:28;99119.22;;;-1.17;100.00
2785;BME280;57944;48.722;9.316;2023-01-29T03:49:10;99128.50;;;-1.04;100.00
2785;BME280;57944;48.722;9.316;2023-01-29T03:51:55;99122.06;;;-0.80;100.00
2785;BME280;57944;48.722;9.316;2023-01-29T03:54:38;99124.72;;;-0.69;100.00
2785;BME280;57944;48.722;9.316;2023-01-29T03:57:20;99116.13;;;-0.64;100.00
2785;BME280;57944;48.722;9.316;2023-01-29T04:00:02;99126.97;;;-0.64;100.00
2785;BME280;57944;48.722;9.316;2023-01-29T04:03:01;99130.97;;;-0.61;100.00
2785;BME280;57944;48.722;9.316;2023-01-29T04:05:46;99122.00;;;-0.51;100.00
2785;BME280;57944;48.722;9.316;2023-01-29T04:08:29;99128.34;;;-0.46;100.00
2785;BME280;57944;48.722;9.316;2023-01-29T04:11:10;99136.31;;;-0.39;100.00
2785;BME280;57944;48.722;9.316;2023-01-29T04:13:43;99132.63;;;-0.48;100.00
2785;BME280;57944;48.722;9.316;2023-01-29T04:16:22;99134.66;;;-0.40;100.00
2785;BME280;57944;48.722;9.316;2023-01-29T04:19:09;99140.66;;;-0.42;100.00
2785;BME280;57944;48.722;9.316;2023-01-29T04:21:42;99135.81;;;-0.58;100.00
2785;BME280;57944;48.722;9.316;2023-01-29T04:24:16;99128.59;;;-0.77;100.00
2785;BME280;57944;48.722;9.316;2023-01-29T04:26:58;99128.66;;;-0.79;100.00
2785;BME280;57944;48.722;9.316;2023-01-29T04:29:46;99137.25;;;-0.83;100.00
2785;BME280;57944;48.722;9.316;2023-01-29T04:32:29;99138.94;;;-0.98;100.00
2785;BME280;57944;48.722;9.316;2023-01-29T04:35:16;99135.41;;;-0.94;100.00
2785;BME280;57944;48.722;9.316;2023-01-29T04:38:04;99137.09;;;-0.94;100.00
2785;BME280;57944;48.722;9.316;2023-01-29T04:40:52;99139.25;;;-1.02;100.00
2785;BME280;57944;48.722;9.316;2023-01-29T04:43:31;99139.97;;;-1.00;100.00
2785;BME280;57944;48.722;9.316;2023-01-29T04:46:14;99138.63;;;-0.92;100.00
2785;BME280;57944;48.722;9.316;2023-01-29T04:49:05;99135.19;;;-0.76;100.00
2785;BME280;57944;48.722;9.316;2023-01-29T04:51:49;99128.66;;;-0.79;100.00
2785;BME280;57944;48.722;9.316;2023-01-29T04:54:33;99126.28;;;-0.95;100.00
2785;BME280;57944;48.722;9.316;2023-01-29T04:57:14;99120.81;;;-1.01;100.00
2785;BME280;57944;48.722;9.316;2023-01-29T04:59:59;99121.53;;;-0.99;100.00
2785;BME280;57944;48.722;9.316;2023-01-29T05:02:36;99125.28;;;-1.06;100.00
2785;BME280;57944;48.722;9.316;2023-01-29T05:05:09;99136.47;;;-1.12;100.00
2785;BME280;57944;48.722;9.316;2023-01-29T05:07:42;99134.75;;;-1.26;100.00
2785;BME280;57944;48.722;9.316;2023-01-29T05:10:16;99136.38;;;-1.25;100.00
2785;BME280;57944;48.722;9.316;2023-01-29T05:12:57;99130.47;;;-1.24;100.00
2785;BME280;57944;48.722;9.316;2023-01-29T05:15:36;99137.78;;;-1.21;100.00
2785;BME280;57944;48.722;9.316;2023-01-29T05:18:07;99134.84;;;-1.13;100.00
2785;BME280;57944;48.722;9.316;2023-01-29T05:20:41;99133.88;;;-1.10;100.00
2785;BME280;57944;48.722;9.316;2023-01-29T05:23:15;99131.38;;;-1.10;100.00
2785;BME280;57944;48.722;9.316;2023-01-29T05:25:48;99134.75;;;-1.12;100.00
2785;BME280;57944;48.722;9.316;2023-01-29T05:28:21;99138.16;;;-1.13;100.00
2785;BME280;57944;48.722;9.316;2023-01-29T05:30:51;99133.34;;;-1.01;100.00
2785;BME280;57944;48.722;9.316;2023-01-29T05:33:25;99136.72;;;-0.88;100.00
2785;BME280;57944;48.722;9.316;2023-01-29T05:35:58;99139.25;;;-1.02;100.00
2785;BME280;57944;48.722;9.316;2023-01-29T05:38:28;99150.66;;;-1.13;100.00
2785;BME280;57944;48.722;9.316;2023-01-29T05:40:58;99138.16;;;-1.27;100.00
2785;BME280;57944;48.722;9.316;2023-01-29T05:43:31;99141.09;;;-1.20;100.00
2785;BME280;57944;48.722;9.316;2023-01-29T05:46:02;99134.41;;;-1.20;100.00
2785;BME280;57944;48.722;9.316;2023-01-29T05:48:33;99136.03;;;-1.19;100.00
2785;BME280;57944;48.722;9.316;2023-01-29T05:51:04;99132.44;;;-1.29;100.00
2785;BME280;57944;48.722;9.316;2023-01-29T05:53:34;99130.47;;;-1.38;100.00
2785;BME280;57944;48.722;9.316;2023-01-29T05:56:05;99125.66;;;-1.41;100.00
2785;BME280;57944;48.722;9.316;2023-01-29T05:58:38;99112.97;;;-1.38;100.00
2785;BME280;57944;48.722;9.316;2023-01-29T06:01:11;99103.69;;;-1.22;100.00
2785;BME280;57944;48.722;9.316;2023-01-29T06:03:42;99094.41;;;-1.05;100.00
2785;BME280;57944;48.722;9.316;2023-01-29T06:06:13;99091.53;;;-1.28;100.00
2785;BME280;57944;48.722;9.316;2023-01-29T06:08:44;99092.78;;;-1.21;100.00
2785;BME280;57944;48.722;9.316;2023-01-29T06:11:15;99085.56;;;-1.11;100.00
2785;BME280;57944;48.722;9.316;2023-01-29T06:13:48;99090.25;;;-0.92;100.00
2785;BME280;57944;48.722;9.316;2023-01-29T06:16:18;99097.59;;;-1.03;100.00
2785;BME280;57944;48.722;9.316;2023-01-29T06:18:48;99104.03;;;-0.99;100.00
2785;BME280;57944;48.722;9.316;2023-01-29T06:21:19;99097.25;;;-0.97;100.00
2785;BME280;57944;48.722;9.316;2023-01-29T06:23:51;99100.81;;;-1.01;100.00
2785;BME280;57944;48.722;9.316;2023-01-29T06:26:21;99110.72;;;-1.28;100.00
2785;BME280;57944;48.722;9.316;2023-01-29T06:28:54;99112.25;;;-1.12;100.00
2785;BME280;57944;48.722;9.316;2023-01-29T06:31:24;99109.75;;;-1.26;100.00
2785;BME280;57944;48.722;9.316;2023-01-29T06:34:05;99118.50;;;-1.19;100.00
2785;BME280;57944;48.722;9.316;2023-01-29T06:36:35;99124.41;;;-1.20;100.00
2785;BME280;57944;48.722;9.316;2023-01-29T06:39:06;99126.19;;;-1.22;100.00
2785;BME280;57944;48.722;9.316;2023-01-29T06:41:36;99126.38;;;-1.25;100.00
2785;BME280;57944;48.722;9.316;2023-01-29T06:44:09;99126.56;;;-1.28;100.00
2785;BME280;57944;48.722;9.316;2023-01-29T06:46:39;99118.69;;;-1.36;100.00
2785;BME280;57944;48.722;9.316;2023-01-29T06:49:09;99132.00;;;-1.36;100.00
2785;BME280;57944;48.722;9.316;2023-01-29T06:51:39;99136.69;;;-1.45;100.00
2785;BME280;57944;48.722;9.316;2023-01-29T06:54:09;99126.97;;;-1.50;100.00
2785;BME280;57944;48.722;9.316;2023-01-29T06:56:40;99116.19;;;-1.50;100.00
2785;BME280;57944;48.722;9.316;2023-01-29T06:59:13;99121.00;;;-1.47;100.00
2785;BME280;57944;48.722;9.316;2023-01-29T07:01:43;99128.69;;;-1.36;100.00
2785;BME280;57944;48.722;9.316;2023-01-29T07:04:14;99132.34;;;-1.27;100.00
2785;BME280;57944;48.722;9.316;2023-01-29T07:06:44;99137.72;;;-1.33;100.00
2785;BME280;57944;48.722;9.316;2023-01-29T07:09:15;99145.13;;;-1.32;100.00
2785;BME280;57944;48.722;9.316;2023-01-29T07:11:45;99141.19;;;-1.36;100.00
2785;BME280;57944;48.722;9.316;2023-01-29T07:14:18;99144.25;;;-1.17;100.00
2785;BME280;57944;48.722;9.316;2023-01-29T07:16:48;99145.66;;;-1.13;100.00
2785;BME280;57944;48.722;9.316;2023-01-29T07:19:18;99140.94;;;-1.03;100.00
2785;BME280;57944;48.722;9.316;2023-01-29T07:21:50;99136.31;;;-0.95;100.00
2785;BME280;57944;48.722;9.316;2023-01-29T07:24:20;99142.97;;;-0.81;100.00
2785;BME280;57944;48.722;9.316;2023-01-29T07:26:51;99144.31;;;-0.75;100.00
2785;BME280;57944;48.722;9.316;2023-01-29T07:29:24;99142.69;;;-0.62;100.00
2785;BME280;57944;48.722;9.316;2023-01-29T07:31:54;99147.03;;;-0.51;100.00
2785;BME280;57944;48.722;9.316;2023-01-29T07:34:24;99152.06;;;-0.51;100.00
2785;BME280;57944;48.722;9.316;2023-01-29T07:36:55;99147.97;;;-0.81;100.00
2785;BME280;57944;48.722;9.316;2023-01-29T07:39:25;99150.16;;;-0.89;100.00
2785;BME280;57944;48.722;9.316;2023-01-29T07:41:55;99159.59;;;-0.65;100.00
2785;BME280;57944;48.722;9.316;2023-01-29T07:44:29;99163.69;;;-0.64;100.00
2785;BME280;57944;48.722;9.316;2023-01-29T07:47:00;99161.25;;;-0.52;100.00
2785;BME280;57944;48.722;9.316;2023-01-29T07:49:31;99160.00;;;-0.59;100.00
2785;BME280;57944;48.722;9.316;2023-01-29T07:52:33;99162.28;;;-0.69;100.00
2785;BME280;57944;48.722;9.316;2023-01-29T07:55:21;99162.53;;;-0.73;100.00
2785;BME280;57944;48.722;9.316;2023-01-29T07:57:59;99165.50;;;-0.66;100.00
2785;BME280;57944;48.722;9.316;2023-01-29T08:00:34;99172.31;;;-0.83;100.00
2785;BME280;57944;48.722;9.316;2023-01-29T08:03:12;99173.19;;;-0.70;100.00
2785;BME280;57944;48.722;9.316;2023-01-29T08:05:43;99178.19;;;-0.55;100.00
2785;BME280;57944;48.722;9.316;2023-01-29T08:08:14;99190.56;;;-0.39;100.00
2785;BME280;57944;48.722;9.316;2023-01-29T08:10:45;99182.00;;;-0.35;100.00
2785;BME280;57944;48.722;9.316;2023-01-29T08:13:15;99177.69;;;-0.33;100.00
2785;BME280;57944;48.722;9.316;2023-01-29T08:15:48;99172.34;;;-0.14;100.00
2785;BME280;57944;48.722;9.316;2023-01-29T08:18:18;99165.50;;;0.02;100.00
2785;BME280;57944;48.722;9.316;2023-01-29T08:20:48;99171.69;;;0.24;100.00
2785;BME280;57944;48.722;9.316;2023-01-29T08:23:19;99168.19;;;0.39;100.00
2785;BME280;57944;48.722;9.316;2023-01-29T08:25:52;99162.91;;;0.04;100.00
2785;BME280;57944;48.722;9.316;2023-01-29T08:28:22;99170.50;;;0.02;100.00
2785;BME280;57944;48.722;9.316;2023-01-29T08:30:56;99172.81;;;0.05;100.00
2785;BME280;57944;48.722;9.316;2023-01-29T08:33:26;99189.00;;;-0.13;100.00
2785;BME280;57944;48.722;9.316;2023-01-29T08:36:09;99196.22;;;-0.09;100.00
2785;BME280;57944;48.722;9.316;2023-01-29T08:38:40;99192.19;;;0.03;100.00
2785;BME280;57944;48.722;9.316;2023-01-29T08:41:10;99196.91;;;-0.19;100.00
2785;BME280;57944;48.722;9.316;2023-01-29T08:43:41;99195.38;;;-0.36;100.00
2785;BME280;57944;48.722;9.316;2023-01-29T08:46:15;99194.59;;;-0.37;100.00
2785;BME280;57944;48.722;9.316;2023-01-29T08:48:46;99189.06;;;-0.42;100.00
2785;BME280;57944;48.722;9.316;2023-01-29T08:51:16;99189.22;;;-0.31;100.00
2785;BME280;57944;48.722;9.316;2023-01-29T08:53:46;99195.28;;;-0.20;100.00
2785;BME280;57944;48.722;9.316;2023-01-29T08:56:17;99201.34;;;-0.10;100.00
2785;BME280;57944;48.722;9.316;2023-01-29T08:58:47;99205.66;;;-0.27;100.00
2785;BME280;57944;48.722;9.316;2023-01-29T09:01:20;99211.59;;;-0.28;100.00
2785;BME280;57944;48.722;9.316;2023-01-29T09:03:51;99202.28;;;-0.40;100.00
2785;BME280;57944;48.722;9.316;2023-01-29T09:06:22;99204.97;;;-0.43;100.00
2785;BME280;57944;48.722;9.316;2023-01-29T09:08:52;99211.06;;;-0.33;100.00
2785;BME280;57944;48.722;9.316;2023-01-29T09:11:22;99208.38;;;-0.30;100.00
2785;BME280;57944;48.722;9.316;2023-01-29T09:13:53;99209.16;;;-0.29;100.00
2785;BME280;57944;48.722;9.316;2023-01-29T09:16:25;99208.47;;;-0.04;100.00
2785;BME280;57944;48.722;9.316;2023-01-29T09:18:56;99209.47;;;0.20;100.00
2785;BME280;57944;48.722;9.316;2023-01-29T09:21:26;99208.63;;;0.47;100.00
2785;BME280;57944;48.722;9.316;2023-01-29T09:23:56;99215.59;;;0.56;100.00
2785;BME280;57944;48.722;9.316;2023-01-29T09:26:26;99208.94;;;0.55;100.00
2785;BME280;57944;48.722;9.316;2023-01-29T09:28:57;99207.59;;;1.02;100.00
2785;BME280;57944;48.722;9.316;2023-01-29T09:31:31;99210.41;;;1.10;100.00
2785;BME280;57944;48.722;9.316;2023-01-29T09:34:01;99209.78;;;1.20;100.00
2785;BME280;57944;48.722;9.316;2023-01-29T09:36:32;99213.78;;;1.22;100.00
2785;BME280;57944;48.722;9.316;2023-01-29T09:39:02;99208.38;;;1.03;100.00
2785;BME280;57944;48.722;9.316;2023-01-29T09:41:50;99209.69;;;0.96;100.00
2785;BME280;57944;48.722;9.316;2023-01-29T09:44:44;99218.63;;;0.74;100.00
2785;BME280;57944;48.722;9.316;2023-01-29T09:47:27;99207.56;;;0.77;100.00
2785;BME280;57944;48.722;9.316;2023-01-29T09:50:04;99209.69;;;0.96;100.00
2785;BME280;57944;48.722;9.316;2023-01-29T09:52:41;99208.59;;;1.13;100.00
2785;BME280;57944;48.722;9.316;2023-01-29T09:55:21;99204.06;;;1.05;100.00
2785;BME280;57944;48.722;9.316;2023-01-29T09:57:57;99197.63;;;1.14;100.00
2785;BME280;57944;48.722;9.316;2023-01-29T10:00:35;99191.34;;;1.58;99.83
2785;BME280;57944;48.722;9.316;2023-01-29T10:03:30;99190.16;;;1.87;96.90
2785;BME280;57944;48.722;9.316;2023-01-29T10:06:35;99185.53;;;2.29;94.74
2785;BME280;57944;48.722;9.316;2023-01-29T10:09:46;99169.28;;;2.68;91.65
2785;BME280;57944;48.722;9.316;2023-01-29T10:13:16;99151.66;;;2.91;86.21
2785;BME280;57944;48.722;9.316;2023-01-29T10:16:14;99147.19;;;2.95;84.57
2785;BME280;57944;48.722;9.316;2023-01-29T10:19:20;99148.31;;;3.35;83.26
2785;BME280;57944;48.722;9.316;2023-01-29T10:22:42;99133.03;;;3.92;76.46
2785;BME280;57944;48.722;9.316;2023-01-29T10:25:18;99138.94;;;4.13;74.09
2785;BME280;57944;48.722;9.316;2023-01-29T10:27:53;99137.16;;;4.46;75.26
2785;BME280;57944;48.722;9.316;2023-01-29T10:30:31;99142.66;;;4.40;70.86
2785;BME280;57944;48.722;9.316;2023-01-29T10:33:05;99132.94;;;4.56;69.62
2785;BME280;57944;48.722;9.316;2023-01-29T10:35:49;99139.34;;;4.39;67.32
2785;BME280;57944;48.722;9.316;2023-01-29T10:38:36;99152.03;;;4.07;73.05
2785;BME280;57944;48.722;9.316;2023-01-29T10:41:26;99156.91;;;3.88;72.75
2785;BME280;57944;48.722;9.316;2023-01-29T10:44:18;99161.38;;;4.16;72.08
2785;BME280;57944;48.722;9.316;2023-01-29T10:47:24;99154.56;;;4.49;76.71
2785;BME280;57944;48.722;9.316;2023-01-29T10:50:24;99153.50;;;4.73;73.29
2785;BME280;57944;48.722;9.316;2023-01-29T10:53:29;99144.03;;;4.44;69.82
2785;BME280;57944;48.722;9.316;2023-01-29T10:56:21;99142.59;;;4.09;70.09
2785;BME280;57944;48.722;9.316;2023-01-29T10:59:02;99138.72;;;4.05;71.07
2785;BME280;57944;48.722;9.316;2023-01-29T11:01:36;99141.53;;;3.91;71.45
2785;BME280;57944;48.722;9.316;2023-01-29T11:04:10;99144.97;;;3.90;72.97
2785;BME280;57944;48.722;9.316;2023-01-29T11:06:42;99138.84;;;3.71;77.68
2785;BME280;57944;48.722;9.316;2023-01-29T11:09:28;99145.78;;;3.90;74.38
2785;BME280;57944;48.722;9.316;2023-01-29T11:12:10;99146.09;;;4.29;69.71
2785;BME280;57944;48.722;9.316;2023-01-29T11:14:46;99144.72;;;4.04;67.99
2785;BME280;57944;48.722;9.316;2023-01-29T11:17:22;99145.66;;;3.92;71.24
2785;BME280;57944;48.722;9.316;2023-01-29T11:19:54;99142.41;;;4.01;72.55
2785;BME280;57944;48.722;9.316;2023-01-29T11:22:29;99131.66;;;4.20;69.81
2785;BME280;57944;48.722;9.316;2023-01-29T11:25:16;99125.69;;;4.42;69.73
2785;BME280;57944;48.722;9.316;2023-01-29T11:27:53;99129.72;;;4.23;68.70
2785;BME280;57944;48.722;9.316;2023-01-29T11:30:27;99121.31;;;4.23;67.54
2785;BME280;57944;48.722;9.316;2023-01-29T11:33:09;99130.31;;;3.84;68.99
2785;BME280;57944;48.722;9.316;2023-01-29T11:35:41;99124.63;;;3.70;71.87
2785;BME280;57944;48.722;9.316;2023-01-29T11:38:21;99124.47;;;4.15;68.64
2785;BME280;57944;48.722;9.316;2023-01-29T11:41:06;99126.81;;;4.07;67.88
2785;BME280;57944;48.722;9.316;2023-01-29T11:43:37;99116.09;;;4.36;65.75
2785;BME280;57944;48.722;9.316;2023-01-29T11:46:14;99105.63;;;3.98;68.24
2785;BME280;57944;48.722;9.316;2023-01-29T11:48:47;99099.34;;;3.93;67.42
2785;BME280;57944;48.722;9.316;2023-01-29T11:51:32;99098.78;;;3.89;65.97
2785;BME280;57944;48.722;9.316;2023-01-29T11:54:05;99100.44;;;3.35;71.40
2785;BME280;57944;48.722;9.316;2023-01-29T11:56:41;99099.97;;;3.42;73.21
2785;BME280;57944;48.722;9.316;2023-01-29T11:59:37;99090.03;;;3.72;71.89
2785;BME280;57944;48.722;9.316;2023-01-29T12:02:26;99092.69;;;3.92;70.19
2785;BME280;57944;48.722;9.316;2023-01-29T12:05:04;99093.47;;;3.71;70.94
2785;BME280;57944;48.722;9.316;2023-01-29T12:07:41;99092.16;;;3.88;70.46
2785;BME280;57944;48.722;9.316;2023-01-29T12:10:31;99083.00;;;4.29;68.57
2785;BME280;57944;48.722;9.316;2023-01-29T12:13:25;99074.59;;;4.29;65.69
2785;BME280;57944;48.722;9.316;2023-01-29T12:16:16;99067.56;;;4.53;65.59
2785;BME280;57944;48.722;9.316;2023-01-29T12:18:54;99061.97;;;4.90;63.32
2785;BME280;57944;48.722;9.316;2023-01-29T12:21:33;99052.16;;;4.56;64.21
2785;BME280;57944;48.722;9.316;2023-01-29T12:24:18;99045.84;;;4.41;65.12
2785;BME280;57944;48.722;9.316;2023-01-29T12:27:01;99034.38;;;4.06;66.96
2785;BME280;57944;48.722;9.316;2023-01-29T12:29:48;99029.16;;;3.98;68.76
2785;BME280;57944;48.722;9.316;2023-01-29T12:32:31;99008.09;;;4.09;69.22
2785;BME280;57944;48.722;9.316;2023-01-29T12:35:13;98998.03;;;3.88;69.61
2785;BME280;57944;48.722;9.316;2023-01-29T12:37:53;98994.31;;;3.29;73.56
2785;BME280;57944;48.722;9.316;2023-01-29T12:40:33;98991.97;;;3.05;75.65
2785;BME280;57944;48.722;9.316;2023-01-29T12:43:15;98974.06;;;3.19;75.20
2785;BME280;57944;48.722;9.316;2023-01-29T12:45:53;98974.16;;;3.29;75.51
2785;BME280;57944;48.722;9.316;2023-01-29T12:48:29;98969.47;;;3.24;77.65
2785;BME280;57944;48.722;9.316;2023-01-29T12:51:06;98965.69;;;3.51;74.03
2785;BME280;57944;48.722;9.316;2023-01-29T12:53:44;98969.06;;;3.61;74.45
2785;BME280;57944;48.722;9.316;2023-01-29T12:56:26;98971.13;;;3.98;71.10
2785;BME280;57944;48.722;9.316;2023-01-29T12:59:04;98966.59;;;3.92;70.60
2785;BME280;57944;48.722;9.316;2023-01-29T13:01:49;98953.66;;;4.06;69.97
2785;BME280;57944;48.722;9.316;2023-01-29T13:04:31;98955.00;;;3.79;73.16
2785;BME280;57944;48.722;9.316;2023-01-29T13:07:13;98961.63;;;3.80;71.93
2785;BME280;57944;48.722;9.316;2023-01-29T13:09:49;98953.16;;;3.61;73.94
2785;BME280;57944;48.722;9.316;2023-01-29T13:12:22;98950.00;;;3.89;71.00
2785;BME280;57944;48.722;9.316;2023-01-29T13:14:56;98951.00;;;3.56;73.33
2785;BME280;57944;48.722;9.316;2023-01-29T13:17:36;98950.75;;;3.06;75.95
2785;BME280;57944;48.722;9.316;2023-01-29T13:20:16;98945.59;;;2.75;78.67
2785;BME280;57944;48.722;9.316;2023-01-29T13:22:51;98940.47;;;2.65;80.64
2785;BME280;57944;48.722;9.316;2023-01-29T13:25:23;98929.41;;;2.57;82.59
2785;BME280;57944;48.722;9.316;2023-01-29T13:27:53;98936.66;;;2.82;81.35
2785;BME280;57944;48.722;9.316;2023-01-29T13:30:30;98929.97;;;3.04;79.51
2785;BME280;57944;48.722;9.316;2023-01-29T13:33:05;98940.53;;;3.40;76.62
2785;BME280;57944;48.722;9.316;2023-01-29T13:35:42;98935.75;;;3.36;75.78
2785;BME280;57944;48.722;9.316;2023-01-29T13:38:25;98934.84;;;3.38;76.26
2785;BME280;57944;48.722;9.316;2023-01-29T13:41:01;98942.59;;;3.46;75.46
2785;BME280;57944;48.722;9.316;2023-01-29T13:43:37;98946.16;;;3.43;75.70
2785;BME280;57944;48.722;9.316;2023-01-29T13:46:11;98949.38;;;3.97;73.94
2785;BME280;57944;48.722;9.316;2023-01-29T13:48:49;98943.38;;;4.19;70.12
2785;BME280;57944;48.722;9.316;2023-01-29T13:51:28;98942.13;;;4.44;68.28
2785;BME280;57944;48.722;9.316;2023-01-29T13:54:04;98945.56;;;4.43;66.92
2785;BME280;57944;48.722;9.316;2023-01-29T13:56:45;98938.31;;;4.19;68.13
2785;BME280;57944;48.722;9.316;2023-01-29T13:59:51;98938.31;;;4.19;68.49
2785;BME280;57944;48.722;9.316;2023-01-29T14:02:26;98949.25;;;4.29;68.92
2785;BME280;57944;48.722;9.316;2023-01-29T14:05:39;98944.69;;;4.23;68.71